createdAt,value
2022-11-10T00:00:28.794Z,1009.03
2022-11-10T00:01:28.773Z,1009.06
2022-11-10T00:02:28.744Z,1009.07
2022-11-10T00:03:28.743Z,1009.14
2022-11-10T00:04:28.781Z,1009.12
2022-11-10T00:05:28.752Z,1009.16
2022-11-10T00:06:29.704Z,1009.17
2022-11-10T00:07:29.524Z,1009.16
2022-11-10T00:08:28.679Z,1009.19
2022-11-10T00:09:28.686Z,1009.16
2022-11-10T00:10:28.664Z,1009.25
2022-11-10T00:11:29.653Z,1009.20
2022-11-10T00:12:28.626Z,1009.23
2022-11-10T00:13:28.654Z,1009.27
2022-11-10T00:14:28.679Z,1009.27
2022-11-10T00:15:28.609Z,1009.29
2022-11-10T00:16:28.584Z,1009.26
2022-11-10T00:17:28.578Z,1009.31
2022-11-10T00:18:28.878Z,1009.31
2022-11-10T00:19:29.390Z,1009.29
2022-11-10T00:20:28.497Z,1009.33
2022-11-10T00:21:28.491Z,1009.33
2022-11-10T00:22:28.472Z,1009.34
2022-11-10T00:23:28.500Z,1009.35
2022-11-10T00:24:28.490Z,1009.38
2022-11-10T00:25:28.542Z,1009.38
2022-11-10T00:26:28.439Z,1009.40
2022-11-10T00:27:28.558Z,1009.46
2022-11-10T00:28:28.412Z,1009.51
2022-11-10T00:29:28.453Z,1009.50
2022-11-10T00:30:28.387Z,1009.54
2022-11-10T00:31:29.259Z,1009.50
2022-11-10T00:32:28.420Z,1009.55
2022-11-10T00:33:28.343Z,1009.59
2022-11-10T00:34:28.339Z,1009.61
2022-11-10T00:35:28.351Z,1009.61
2022-11-10T00:36:29.291Z,1009.65
2022-11-10T00:37:28.796Z,1009.63
2022-11-10T00:38:28.387Z,1009.68
2022-11-10T00:39:28.282Z,1009.59
2022-11-10T00:40:28.261Z,1009.64
2022-11-10T00:41:28.295Z,1009.64
2022-11-10T00:42:28.221Z,1009.67
2022-11-10T00:43:28.680Z,1009.68
2022-11-10T00:44:28.222Z,1009.67
2022-11-10T00:45:28.309Z,1009.63
2022-11-10T00:46:28.304Z,1009.61
2022-11-10T00:47:28.222Z,1009.64
2022-11-10T00:48:28.147Z,1009.66
2022-11-10T00:49:28.175Z,1009.65
2022-11-10T00:50:28.147Z,1009.66
2022-11-10T00:51:28.149Z,1009.63
2022-11-10T00:52:28.107Z,1009.67
2022-11-10T00:53:28.074Z,1009.64
2022-11-10T00:54:28.104Z,1009.72
2022-11-10T00:55:28.085Z,1009.70
2022-11-10T00:56:28.085Z,1009.71
2022-11-10T00:57:29.522Z,1009.72
2022-11-10T00:58:28.382Z,1009.72
2022-11-10T00:59:27.998Z,1009.74
2022-11-10T01:00:28.019Z,1009.77
2022-11-10T01:01:28.047Z,1009.84
2022-11-10T01:02:28.075Z,1009.82
2022-11-10T01:03:27.977Z,1009.85
2022-11-10T01:04:27.940Z,1009.79
2022-11-10T01:05:27.933Z,1009.88
2022-11-10T01:06:27.952Z,1009.89
2022-11-10T01:07:27.987Z,1009.88
2022-11-10T01:08:27.911Z,1009.80
2022-11-10T01:09:27.909Z,1009.90
2022-11-10T01:10:27.892Z,1009.95
2022-11-10T01:11:29.010Z,1009.92
2022-11-10T01:12:27.877Z,1009.97
2022-11-10T01:13:27.860Z,1010.01
2022-11-10T01:14:27.810Z,1009.98
2022-11-10T01:15:28.265Z,1010.02
2022-11-10T01:16:27.893Z,1010.05
2022-11-10T01:17:27.811Z,1010.05
2022-11-10T01:18:27.776Z,1010.06
2022-11-10T01:19:27.772Z,1010.10
2022-11-10T01:20:27.751Z,1010.16
2022-11-10T01:21:27.709Z,1010.06
2022-11-10T01:22:27.747Z,1010.13
2022-11-10T01:23:27.791Z,1010.14
2022-11-10T01:24:27.713Z,1010.13
2022-11-10T01:25:27.712Z,1010.17
2022-11-10T01:26:27.678Z,1010.17
2022-11-10T01:27:27.762Z,1010.17
2022-11-10T01:28:27.723Z,1010.22
2022-11-10T01:29:27.622Z,1010.17
2022-11-10T01:30:27.603Z,1010.23
2022-11-10T01:31:27.619Z,1010.20
2022-11-10T01:32:27.605Z,1010.21
2022-11-10T01:33:27.569Z,1010.22
2022-11-10T01:34:27.584Z,1010.23
2022-11-10T01:35:27.547Z,1010.25
2022-11-10T01:36:27.543Z,1010.24
2022-11-10T01:37:27.565Z,1010.22
2022-11-10T01:38:27.495Z,1010.19
2022-11-10T01:39:27.611Z,1010.24
2022-11-10T01:40:27.509Z,1010.17
2022-11-10T01:41:27.455Z,1010.22
2022-11-10T01:42:27.480Z,1010.22
2022-11-10T01:43:27.452Z,1010.18
2022-11-10T01:44:27.501Z,1010.17
2022-11-10T01:45:27.404Z,1010.24
2022-11-10T01:46:27.409Z,1010.22
2022-11-10T01:47:27.447Z,1010.32
2022-11-10T01:48:27.421Z,1010.37
2022-11-10T01:49:27.382Z,1010.38
2022-11-10T01:50:27.448Z,1010.37
2022-11-10T01:51:27.339Z,1010.36
2022-11-10T01:52:27.431Z,1010.35
2022-11-10T01:53:27.295Z,1010.38
2022-11-10T01:54:27.340Z,1010.38
2022-11-10T01:55:27.291Z,1010.36
2022-11-10T01:56:27.300Z,1010.37
2022-11-10T01:57:27.330Z,1010.32
2022-11-10T01:58:27.300Z,1010.38
2022-11-10T01:59:28.496Z,1010.36
2022-11-10T02:00:28.456Z,1010.37
2022-11-10T02:01:27.610Z,1010.39
2022-11-10T02:02:27.261Z,1010.39
2022-11-10T02:03:27.203Z,1010.40
2022-11-10T02:04:27.152Z,1010.39
2022-11-10T02:05:27.362Z,1010.35
2022-11-10T02:06:27.322Z,1010.35
2022-11-10T02:07:27.157Z,1010.37
2022-11-10T02:08:27.130Z,1010.40
2022-11-10T02:09:27.115Z,1010.42
2022-11-10T02:10:27.148Z,1010.44
2022-11-10T02:11:27.097Z,1010.48
2022-11-10T02:12:27.074Z,1010.52
2022-11-10T02:13:27.062Z,1010.48
2022-11-10T02:14:27.091Z,1010.50
2022-11-10T02:15:27.194Z,1010.57
2022-11-10T02:16:27.004Z,1010.59
2022-11-10T02:17:27.795Z,1010.55
2022-11-10T02:18:26.976Z,1010.56
2022-11-10T02:19:26.974Z,1010.61
2022-11-10T02:20:26.962Z,1010.63
2022-11-10T02:21:26.934Z,1010.63
2022-11-10T02:22:26.966Z,1010.62
2022-11-10T02:23:26.946Z,1010.65
2022-11-10T02:24:26.930Z,1010.73
2022-11-10T02:25:26.956Z,1010.67
2022-11-10T02:26:26.937Z,1010.67
2022-11-10T02:27:26.927Z,1010.68
2022-11-10T02:28:27.073Z,1010.71
2022-11-10T02:29:26.895Z,1010.70
2022-11-10T02:30:27.890Z,1010.76
2022-11-10T02:31:26.935Z,1010.75
2022-11-10T02:32:26.876Z,1010.75
2022-11-10T02:33:26.819Z,1010.80
2022-11-10T02:34:27.696Z,1010.79
2022-11-10T02:35:26.820Z,1010.84
2022-11-10T02:36:27.281Z,1010.82
2022-11-10T02:37:26.766Z,1010.83
2022-11-10T02:38:26.807Z,1010.75
2022-11-10T02:39:26.854Z,1010.84
2022-11-10T02:40:26.746Z,1010.83
2022-11-10T02:41:26.899Z,1010.86
2022-11-10T02:42:26.670Z,1010.88
2022-11-10T02:43:26.686Z,1010.91
2022-11-10T02:44:26.638Z,1010.93
2022-11-10T02:45:26.829Z,1010.93
2022-11-10T02:46:26.651Z,1010.94
2022-11-10T02:47:26.671Z,1010.98
2022-11-10T02:48:26.598Z,1010.99
2022-11-10T02:49:26.658Z,1011.01
2022-11-10T02:50:26.755Z,1011.00
2022-11-10T02:51:26.816Z,1011.01
2022-11-10T02:52:26.880Z,1010.98
2022-11-10T02:53:26.640Z,1011.02
2022-11-10T02:54:27.308Z,1011.00
2022-11-10T02:55:26.541Z,1011.00
2022-11-10T02:56:26.490Z,1011.00
2022-11-10T02:57:26.532Z,1011.01
2022-11-10T02:58:26.485Z,1011.05
2022-11-10T02:59:26.441Z,1011.09
2022-11-10T03:00:26.472Z,1011.08
2022-11-10T03:01:26.510Z,1011.08
2022-11-10T03:02:31.160Z,1011.08
2022-11-10T03:03:27.401Z,1011.11
2022-11-10T03:04:26.662Z,1011.08
2022-11-10T03:05:26.407Z,1011.06
2022-11-10T03:06:26.385Z,1011.03
2022-11-10T03:07:26.355Z,1011.06
2022-11-10T03:08:26.343Z,1011.08
2022-11-10T03:09:27.403Z,1011.09
2022-11-10T03:10:26.315Z,1011.09
2022-11-10T03:11:31.863Z,1011.08
2022-11-10T03:12:27.297Z,1011.05
2022-11-10T03:13:35.621Z,1011.09
2022-11-10T03:14:27.312Z,1011.05
2022-11-10T03:15:26.326Z,1011.06
2022-11-10T03:16:26.251Z,1011.09
2022-11-10T03:17:26.376Z,1011.11
2022-11-10T03:18:26.285Z,1011.16
2022-11-10T03:19:26.273Z,1011.15
2022-11-10T03:20:26.196Z,1011.13
2022-11-10T03:21:26.170Z,1011.19
2022-11-10T03:22:26.277Z,1011.24
2022-11-10T03:23:26.618Z,1011.20
2022-11-10T03:24:26.148Z,1011.25
2022-11-10T03:25:26.166Z,1011.23
2022-11-10T03:26:26.130Z,1011.23
2022-11-10T03:27:26.097Z,1011.22
2022-11-10T03:28:26.091Z,1011.27
2022-11-10T03:29:26.090Z,1011.29
2022-11-10T03:30:26.146Z,1011.27
2022-11-10T03:31:26.045Z,1011.32
2022-11-10T03:32:26.050Z,1011.31
2022-11-10T03:33:26.163Z,1011.30
2022-11-10T03:34:31.554Z,1011.34
2022-11-10T03:35:27.101Z,1011.37
2022-11-10T03:36:26.143Z,1011.36
2022-11-10T03:37:25.992Z,1011.38
2022-11-10T03:38:25.991Z,1011.38
2022-11-10T03:39:25.969Z,1011.43
2022-11-10T03:40:25.931Z,1011.41
2022-11-10T03:41:25.931Z,1011.39
2022-11-10T03:42:26.218Z,1011.39
2022-11-10T03:43:25.994Z,1011.43
2022-11-10T03:44:25.902Z,1011.39
2022-11-10T03:45:25.941Z,1011.39
2022-11-10T03:46:25.935Z,1011.42
2022-11-10T03:47:25.903Z,1011.47
2022-11-10T03:48:25.851Z,1011.47
2022-11-10T03:49:25.864Z,1011.53
2022-11-10T03:50:26.163Z,1011.54
2022-11-10T03:51:25.843Z,1011.56
2022-11-10T03:52:25.804Z,1011.59
2022-11-10T03:53:25.811Z,1011.60
2022-11-10T03:54:26.677Z,1011.62
2022-11-10T03:55:25.931Z,1011.64
2022-11-10T03:56:25.736Z,1011.69
2022-11-10T03:57:26.891Z,1011.64
2022-11-10T03:58:26.066Z,1011.67
2022-11-10T03:59:25.825Z,1011.69
2022-11-10T04:00:26.467Z,1011.71
2022-11-10T04:01:25.862Z,1011.73
2022-11-10T04:02:25.658Z,1011.73
2022-11-10T04:03:26.026Z,1011.71
2022-11-10T04:04:25.615Z,1011.73
2022-11-10T04:05:25.634Z,1011.75
2022-11-10T04:06:25.596Z,1011.75
2022-11-10T04:07:25.907Z,1011.74
2022-11-10T04:08:26.354Z,1011.74
2022-11-10T04:09:25.788Z,1011.74
2022-11-10T04:10:26.366Z,1011.71
2022-11-10T04:11:25.528Z,1011.74
2022-11-10T04:12:25.555Z,1011.72
2022-11-10T04:13:25.641Z,1011.69
2022-11-10T04:14:25.520Z,1011.72
2022-11-10T04:15:25.510Z,1011.75
2022-11-10T04:16:25.505Z,1011.81
2022-11-10T04:17:25.631Z,1011.81
2022-11-10T04:18:26.451Z,1011.85
2022-11-10T04:19:26.324Z,1011.89
2022-11-10T04:20:25.425Z,1011.89
2022-11-10T04:21:25.396Z,1011.90
2022-11-10T04:22:25.401Z,1011.92
2022-11-10T04:23:25.695Z,1011.89
2022-11-10T04:24:25.359Z,1011.89
2022-11-10T04:25:26.304Z,1011.92
2022-11-10T04:26:25.719Z,1011.91
2022-11-10T04:27:25.384Z,1011.89
2022-11-10T04:28:25.302Z,1011.90
2022-11-10T04:29:25.298Z,1011.93
2022-11-10T04:30:25.311Z,1011.92
2022-11-10T04:31:25.405Z,1011.93
2022-11-10T04:32:25.312Z,1011.91
2022-11-10T04:33:25.311Z,1011.91
2022-11-10T04:34:25.294Z,1011.96
2022-11-10T04:35:25.321Z,1011.97
2022-11-10T04:36:25.255Z,1011.97
2022-11-10T04:37:25.267Z,1011.98
2022-11-10T04:38:25.411Z,1011.94
2022-11-10T04:39:25.190Z,1012.02
2022-11-10T04:40:25.201Z,1012.04
2022-11-10T04:41:25.189Z,1012.09
2022-11-10T04:42:25.132Z,1012.05
2022-11-10T04:43:25.432Z,1012.08
2022-11-10T04:44:25.152Z,1012.09
2022-11-10T04:45:25.886Z,1012.13
2022-11-10T04:46:25.093Z,1012.17
2022-11-10T04:47:25.249Z,1012.24
2022-11-10T04:48:25.085Z,1012.25
2022-11-10T04:49:25.034Z,1012.29
2022-11-10T04:50:25.035Z,1012.28
2022-11-10T04:51:25.453Z,1012.37
2022-11-10T04:52:25.123Z,1012.36
2022-11-10T04:53:25.234Z,1012.38
2022-11-10T04:54:25.085Z,1012.44
2022-11-10T04:55:24.968Z,1012.43
2022-11-10T04:56:24.978Z,1012.44
2022-11-10T04:57:25.099Z,1012.49
2022-11-10T04:58:25.055Z,1012.48
2022-11-10T04:59:24.939Z,1012.47
2022-11-10T05:00:24.906Z,1012.51
2022-11-10T05:01:24.952Z,1012.50
2022-11-10T05:02:25.829Z,1012.48
2022-11-10T05:03:25.163Z,1012.48
2022-11-10T05:04:26.096Z,1012.50
2022-11-10T05:05:25.029Z,1012.53
2022-11-10T05:06:24.859Z,1012.52
2022-11-10T05:07:24.868Z,1012.50
2022-11-10T05:08:24.840Z,1012.55
2022-11-10T05:09:24.979Z,1012.54
2022-11-10T05:10:24.788Z,1012.52
2022-11-10T05:11:24.799Z,1012.54
2022-11-10T05:12:24.754Z,1012.56
2022-11-10T05:13:25.203Z,1012.59
2022-11-10T05:14:24.765Z,1012.55
2022-11-10T05:15:24.803Z,1012.58
2022-11-10T05:16:24.679Z,1012.60
2022-11-10T05:17:24.676Z,1012.61
2022-11-10T05:18:24.660Z,1012.69
2022-11-10T05:19:24.741Z,1012.70
2022-11-10T05:20:24.634Z,1012.68
2022-11-10T05:21:24.669Z,1012.67
2022-11-10T05:22:24.630Z,1012.64
2022-11-10T05:23:25.636Z,1012.68
2022-11-10T05:24:24.663Z,1012.69
2022-11-10T05:25:24.592Z,1012.67
2022-11-10T05:26:24.663Z,1012.69
2022-11-10T05:27:24.573Z,1012.67
2022-11-10T05:28:24.592Z,1012.71
2022-11-10T05:29:25.741Z,1012.68
2022-11-10T05:30:24.584Z,1012.64
2022-11-10T05:31:25.555Z,1012.68
2022-11-10T05:32:24.495Z,1012.72
2022-11-10T05:33:24.837Z,1012.75
2022-11-10T05:34:24.476Z,1012.79
2022-11-10T05:35:24.445Z,1012.84
2022-11-10T05:36:24.483Z,1012.88
2022-11-10T05:37:24.439Z,1012.89
2022-11-10T05:38:25.395Z,1012.90
2022-11-10T05:39:25.301Z,1012.97
2022-11-10T05:40:25.214Z,1012.98
2022-11-10T05:41:25.644Z,1012.98
2022-11-10T05:42:24.366Z,1012.97
2022-11-10T05:43:24.744Z,1012.98
2022-11-10T05:44:24.434Z,1012.97
2022-11-10T05:45:24.335Z,1013.01
2022-11-10T05:46:24.365Z,1012.96
2022-11-10T05:47:24.307Z,1012.96
2022-11-10T05:48:25.055Z,1012.97
2022-11-10T05:49:24.474Z,1012.99
2022-11-10T05:50:25.269Z,1013.01
2022-11-10T05:51:25.164Z,1013.09
2022-11-10T05:52:24.753Z,1013.11
2022-11-10T05:53:25.731Z,1013.11
2022-11-10T05:54:24.449Z,1013.07
2022-11-10T05:55:24.276Z,1013.11
2022-11-10T05:56:24.217Z,1013.09
2022-11-10T05:57:24.159Z,1013.14
2022-11-10T05:58:24.534Z,1013.18
2022-11-10T05:59:24.127Z,1013.23
2022-11-10T06:00:24.155Z,1013.18
2022-11-10T06:01:24.128Z,1013.19
2022-11-10T06:02:24.194Z,1013.22
2022-11-10T06:03:24.550Z,1013.24
2022-11-10T06:04:24.126Z,1013.29
2022-11-10T06:05:29.694Z,1013.29
2022-11-10T06:06:25.049Z,1013.28
2022-11-10T06:07:24.036Z,1013.33
2022-11-10T06:08:24.086Z,1013.36
2022-11-10T06:09:24.148Z,1013.36
2022-11-10T06:10:23.998Z,1013.40
2022-11-10T06:11:24.062Z,1013.43
2022-11-10T06:12:24.011Z,1013.38
2022-11-10T06:13:24.312Z,1013.47
2022-11-10T06:14:23.965Z,1013.49
2022-11-10T06:15:23.988Z,1013.58
2022-11-10T06:16:23.944Z,1013.59
2022-11-10T06:17:23.939Z,1013.57
2022-11-10T06:18:23.933Z,1013.61
2022-11-10T06:19:23.904Z,1013.56
2022-11-10T06:20:23.894Z,1013.57
2022-11-10T06:21:23.922Z,1013.63
2022-11-10T06:22:23.873Z,1013.62
2022-11-10T06:23:24.116Z,1013.69
2022-11-10T06:24:23.825Z,1013.64
2022-11-10T06:25:23.830Z,1013.57
2022-11-10T06:26:23.791Z,1013.58
2022-11-10T06:27:23.812Z,1013.59
2022-11-10T06:28:23.789Z,1013.63
2022-11-10T06:29:26.767Z,1013.70
2022-11-10T06:30:23.774Z,1013.70
2022-11-10T06:31:23.787Z,1013.71
2022-11-10T06:32:23.704Z,1013.72
2022-11-10T06:33:24.194Z,1013.76
2022-11-10T06:34:23.692Z,1013.77
2022-11-10T06:35:23.747Z,1013.73
2022-11-10T06:36:23.653Z,1013.80
2022-11-10T06:37:23.729Z,1013.84
2022-11-10T06:38:23.657Z,1013.85
2022-11-10T06:39:23.614Z,1013.83
2022-11-10T06:40:24.022Z,1013.91
2022-11-10T06:41:25.457Z,1013.92
2022-11-10T06:42:23.617Z,1013.89
2022-11-10T06:43:23.948Z,1013.89
2022-11-10T06:44:23.595Z,1013.89
2022-11-10T06:45:23.575Z,1013.86
2022-11-10T06:46:23.527Z,1013.90
2022-11-10T06:47:23.554Z,1013.96
2022-11-10T06:48:23.535Z,1013.94
2022-11-10T06:49:23.517Z,1013.98
2022-11-10T06:50:23.496Z,1013.96
2022-11-10T06:51:23.541Z,1013.99
2022-11-10T06:52:23.515Z,1014.05
2022-11-10T06:53:27.041Z,1014.13
2022-11-10T06:54:23.484Z,1014.07
2022-11-10T06:55:23.523Z,1014.16
2022-11-10T06:56:23.438Z,1014.13
2022-11-10T06:57:23.390Z,1014.14
2022-11-10T06:58:24.369Z,1014.16
2022-11-10T06:59:24.270Z,1014.19
2022-11-10T07:00:23.359Z,1014.24
2022-11-10T07:01:23.455Z,1014.26
2022-11-10T07:02:23.329Z,1014.31
2022-11-10T07:03:23.740Z,1014.33
2022-11-10T07:04:23.299Z,1014.40
2022-11-10T07:05:23.279Z,1014.44
2022-11-10T07:06:23.311Z,1014.50
2022-11-10T07:07:23.270Z,1014.55
2022-11-10T07:08:23.240Z,1014.57
2022-11-10T07:09:23.405Z,1014.58
2022-11-10T07:10:23.240Z,1014.57
2022-11-10T07:11:23.202Z,1014.61
2022-11-10T07:12:23.258Z,1014.68
2022-11-10T07:13:23.659Z,1014.65
2022-11-10T07:14:23.199Z,1014.65
2022-11-10T07:15:23.202Z,1014.65
2022-11-10T07:16:24.579Z,1014.65
2022-11-10T07:17:23.235Z,1014.72
2022-11-10T07:18:23.207Z,1014.81
2022-11-10T07:19:23.142Z,1014.82
2022-11-10T07:20:23.093Z,1014.77
2022-11-10T07:21:23.094Z,1014.75
2022-11-10T07:22:23.109Z,1014.72
2022-11-10T07:23:23.603Z,1014.77
2022-11-10T07:24:23.481Z,1014.82
2022-11-10T07:25:23.055Z,1014.81
2022-11-10T07:26:23.069Z,1014.83
2022-11-10T07:27:23.010Z,1014.89
2022-11-10T07:28:27.301Z,1014.96
2022-11-10T07:29:23.996Z,1014.97
2022-11-10T07:30:23.005Z,1014.96
2022-11-10T07:31:23.044Z,1014.96
2022-11-10T07:32:22.962Z,1014.96
2022-11-10T07:33:23.209Z,1014.93
2022-11-10T07:34:22.961Z,1014.95
2022-11-10T07:35:22.949Z,1014.92
2022-11-10T07:36:22.914Z,1014.94
2022-11-10T07:37:22.896Z,1014.97
2022-11-10T07:38:22.854Z,1014.99
2022-11-10T07:39:22.942Z,1015.03
2022-11-10T07:40:22.876Z,1015.04
2022-11-10T07:41:22.817Z,1015.03
2022-11-10T07:42:22.849Z,1015.06
2022-11-10T07:43:23.062Z,1015.05
2022-11-10T07:44:22.871Z,1015.06
2022-11-10T07:45:22.789Z,1015.05
2022-11-10T07:46:22.771Z,1015.07
2022-11-10T07:47:22.754Z,1015.14
2022-11-10T07:48:22.742Z,1015.16
2022-11-10T07:49:22.771Z,1015.17
2022-11-10T07:50:22.736Z,1015.16
2022-11-10T07:51:22.690Z,1015.16
2022-11-10T07:52:22.679Z,1015.18
2022-11-10T07:53:23.186Z,1015.17
2022-11-10T07:54:22.689Z,1015.17
2022-11-10T07:55:22.646Z,1015.17
2022-11-10T07:56:23.263Z,1015.18
2022-11-10T07:57:22.640Z,1015.08
2022-11-10T07:58:22.598Z,1015.08
2022-11-10T07:59:22.612Z,1015.03
2022-11-10T08:00:22.630Z,1015.07
2022-11-10T08:01:22.691Z,1015.10
2022-11-10T08:02:22.608Z,1015.10
2022-11-10T08:03:23.047Z,1015.15
2022-11-10T08:04:22.545Z,1015.17
2022-11-10T08:05:22.539Z,1015.25
2022-11-10T08:06:22.622Z,1015.26
2022-11-10T08:07:22.594Z,1015.28
2022-11-10T08:08:22.480Z,1015.36
2022-11-10T08:09:22.474Z,1015.36
2022-11-10T08:10:22.962Z,1015.33
2022-11-10T08:11:22.584Z,1015.36
2022-11-10T08:12:22.437Z,1015.40
2022-11-10T08:13:22.543Z,1015.51
2022-11-10T08:14:22.402Z,1015.58
2022-11-10T08:15:22.492Z,1015.58
2022-11-10T08:16:22.475Z,1015.63
2022-11-10T08:17:22.391Z,1015.63
2022-11-10T08:18:22.340Z,1015.62
2022-11-10T08:19:22.426Z,1015.64
2022-11-10T08:20:22.395Z,1015.66
2022-11-10T08:21:22.365Z,1015.66
2022-11-10T08:22:22.359Z,1015.63
2022-11-10T08:23:22.603Z,1015.63
2022-11-10T08:24:22.273Z,1015.62
2022-11-10T08:25:22.265Z,1015.65
2022-11-10T08:26:22.308Z,1015.64
2022-11-10T08:27:22.297Z,1015.66
2022-11-10T08:28:22.670Z,1015.68
2022-11-10T08:29:22.226Z,1015.74
2022-11-10T08:30:22.212Z,1015.75
2022-11-10T08:31:22.213Z,1015.90
2022-11-10T08:32:22.235Z,1015.89
2022-11-10T08:33:22.547Z,1015.94
2022-11-10T08:34:22.357Z,1015.93
2022-11-10T08:35:22.158Z,1015.93
2022-11-10T08:36:22.114Z,1015.88
2022-11-10T08:37:22.158Z,1015.90
2022-11-10T08:38:22.077Z,1015.93
2022-11-10T08:39:38.045Z,1015.90
2022-11-10T08:40:23.077Z,1015.97
2022-11-10T08:41:22.085Z,1015.91
2022-11-10T08:42:22.068Z,1015.92
2022-11-10T08:43:22.256Z,1015.91
2022-11-10T08:44:22.057Z,1015.96
2022-11-10T08:45:22.036Z,1015.96
2022-11-10T08:46:22.039Z,1015.99
2022-11-10T08:47:22.039Z,1015.95
2022-11-10T08:48:21.967Z,1016.00
2022-11-10T08:49:21.940Z,1016.00
2022-11-10T08:50:21.969Z,1015.97
2022-11-10T08:51:21.962Z,1015.97
2022-11-10T08:52:21.977Z,1015.96
2022-11-10T08:53:23.791Z,1015.98
2022-11-10T08:54:21.871Z,1016.07
2022-11-10T08:55:21.879Z,1016.14
2022-11-10T08:56:21.879Z,1016.14
2022-11-10T08:57:21.956Z,1016.17
2022-11-10T08:58:21.842Z,1016.15
2022-11-10T08:59:21.836Z,1016.19
2022-11-10T09:00:22.786Z,1016.20
2022-11-10T09:01:21.860Z,1016.26
2022-11-10T09:02:21.884Z,1016.28
2022-11-10T09:03:22.232Z,1016.30
2022-11-10T09:04:21.975Z,1016.28
2022-11-10T09:05:21.732Z,1016.18
2022-11-10T09:06:21.784Z,1016.21
2022-11-10T09:07:21.754Z,1016.24
2022-11-10T09:08:21.715Z,1016.22
2022-11-10T09:09:21.731Z,1016.24
2022-11-10T09:10:21.656Z,1016.26
2022-11-10T09:11:21.661Z,1016.21
2022-11-10T09:12:21.656Z,1016.23
2022-11-10T09:13:27.733Z,1016.21
2022-11-10T09:14:22.682Z,1016.24
2022-11-10T09:15:21.647Z,1016.28
2022-11-10T09:16:21.603Z,1016.31
2022-11-10T09:17:21.645Z,1016.29
2022-11-10T09:18:21.588Z,1016.30
2022-11-10T09:19:21.673Z,1016.36
2022-11-10T09:20:21.600Z,1016.37
2022-11-10T09:21:21.527Z,1016.35
2022-11-10T09:22:21.571Z,1016.36
2022-11-10T09:23:21.862Z,1016.38
2022-11-10T09:24:21.502Z,1016.43
2022-11-10T09:25:22.476Z,1016.42
2022-11-10T09:26:21.487Z,1016.46
2022-11-10T09:27:21.496Z,1016.50
2022-11-10T09:28:21.442Z,1016.51
2022-11-10T09:29:21.430Z,1016.59
2022-11-10T09:30:21.498Z,1016.61
2022-11-10T09:31:21.408Z,1016.66
2022-11-10T09:32:21.405Z,1016.69
2022-11-10T09:33:22.061Z,1016.71
2022-11-10T09:34:21.423Z,1016.66
2022-11-10T09:35:21.359Z,1016.66
2022-11-10T09:36:21.388Z,1016.72
2022-11-10T09:37:21.356Z,1016.76
2022-11-10T09:38:21.733Z,1016.77
2022-11-10T09:39:21.302Z,1016.75
2022-11-10T09:40:21.402Z,1016.70
2022-11-10T09:41:21.310Z,1016.74
2022-11-10T09:42:21.308Z,1016.85
2022-11-10T09:43:21.576Z,1016.79
2022-11-10T09:44:21.286Z,1016.73
2022-11-10T09:45:21.242Z,1016.68
2022-11-10T09:46:21.217Z,1016.72
2022-11-10T09:47:42.761Z,1016.78
2022-11-10T09:48:22.503Z,1016.75
2022-11-10T09:49:21.174Z,1016.82
2022-11-10T09:50:21.184Z,1016.83
2022-11-10T09:51:21.625Z,1016.80
2022-11-10T09:52:21.205Z,1016.82
2022-11-10T09:53:21.111Z,1016.77
2022-11-10T09:54:21.176Z,1016.77
2022-11-10T09:55:21.135Z,1016.76
2022-11-10T09:56:21.104Z,1016.73
2022-11-10T09:57:21.136Z,1016.75
2022-11-10T09:58:21.419Z,1016.84
2022-11-10T09:59:21.113Z,1016.83
2022-11-10T10:00:21.046Z,1016.91
2022-11-10T10:01:21.029Z,1016.83
2022-11-10T10:02:21.037Z,1016.83
2022-11-10T10:03:21.016Z,1016.86
2022-11-10T10:04:21.013Z,1016.82
2022-11-10T10:05:20.956Z,1016.88
2022-11-10T10:06:21.006Z,1016.84
2022-11-10T10:07:20.965Z,1016.87
2022-11-10T10:08:21.281Z,1016.90
2022-11-10T10:09:20.930Z,1016.88
2022-11-10T10:10:20.920Z,1016.87
2022-11-10T10:11:21.020Z,1016.87
2022-11-10T10:12:20.878Z,1016.91
2022-11-10T10:13:20.849Z,1016.91
2022-11-10T10:14:20.883Z,1016.93
2022-11-10T10:15:24.195Z,1016.90
2022-11-10T10:16:20.903Z,1016.94
2022-11-10T10:17:24.730Z,1016.97
2022-11-10T10:18:22.842Z,1016.96
2022-11-10T10:19:20.770Z,1016.85
2022-11-10T10:20:20.779Z,1016.90
2022-11-10T10:21:20.822Z,1016.90
2022-11-10T10:22:20.768Z,1016.92
2022-11-10T10:23:24.157Z,1016.90
2022-11-10T10:24:22.444Z,1016.93
2022-11-10T10:25:20.751Z,1016.97
2022-11-10T10:26:20.698Z,1016.95
2022-11-10T10:27:20.793Z,1016.95
2022-11-10T10:28:21.085Z,1016.97
2022-11-10T10:29:20.658Z,1017.02
2022-11-10T10:30:20.636Z,1016.92
2022-11-10T10:31:20.627Z,1016.95
2022-11-10T10:32:20.703Z,1016.95
2022-11-10T10:33:20.606Z,1016.91
2022-11-10T10:34:20.581Z,1016.96
2022-11-10T10:35:20.586Z,1016.95
2022-11-10T10:36:20.563Z,1016.99
2022-11-10T10:37:20.595Z,1017.01
2022-11-10T10:38:20.820Z,1016.93
2022-11-10T10:39:20.502Z,1016.99
2022-11-10T10:40:20.495Z,1017.05
2022-11-10T10:41:23.856Z,1017.06
2022-11-10T10:42:20.517Z,1016.99
2022-11-10T10:43:20.598Z,1016.99
2022-11-10T10:44:20.526Z,1016.95
2022-11-10T10:45:20.555Z,1017.05
2022-11-10T10:46:20.458Z,1017.00
2022-11-10T10:47:20.467Z,1017.09
2022-11-10T10:48:20.769Z,1017.10
2022-11-10T10:49:29.567Z,1017.12
2022-11-10T10:50:21.379Z,1017.17
2022-11-10T10:51:20.404Z,1017.17
2022-11-10T10:52:20.343Z,1017.05
2022-11-10T10:53:20.340Z,1017.10
2022-11-10T10:54:20.384Z,1017.11
2022-11-10T10:55:20.438Z,1017.19
2022-11-10T10:56:20.284Z,1017.16
2022-11-10T10:57:20.322Z,1017.17
2022-11-10T10:58:20.679Z,1017.19
2022-11-10T10:59:20.331Z,1017.11
2022-11-10T11:00:20.293Z,1017.27
2022-11-10T11:01:20.275Z,1017.20
2022-11-10T11:02:20.259Z,1017.23
2022-11-10T11:03:20.194Z,1017.18
2022-11-10T11:04:20.194Z,1017.24
2022-11-10T11:05:20.179Z,1017.21
2022-11-10T11:06:20.194Z,1017.22
2022-11-10T11:07:20.443Z,1017.21
2022-11-10T11:08:20.497Z,1017.20
2022-11-10T11:09:20.139Z,1017.28
2022-11-10T11:10:20.121Z,1017.20
2022-11-10T11:11:20.100Z,1017.26
2022-11-10T11:12:20.136Z,1017.31
2022-11-10T11:13:20.086Z,1017.23
2022-11-10T11:14:20.097Z,1017.26
2022-11-10T11:15:20.078Z,1017.31
2022-11-10T11:16:20.082Z,1017.29
2022-11-10T11:17:20.087Z,1017.32
2022-11-10T11:18:20.281Z,1017.35
2022-11-10T11:19:20.015Z,1017.44
2022-11-10T11:20:19.984Z,1017.27
2022-11-10T11:21:19.974Z,1017.28
2022-11-10T11:22:19.977Z,1017.31
2022-11-10T11:23:19.956Z,1017.37
2022-11-10T11:24:19.961Z,1017.32
2022-11-10T11:25:19.949Z,1017.29
2022-11-10T11:26:19.934Z,1017.36
2022-11-10T11:27:19.980Z,1017.38
2022-11-10T11:28:20.259Z,1017.26
2022-11-10T11:29:19.864Z,1017.25
2022-11-10T11:30:19.952Z,1017.27
2022-11-10T11:31:19.868Z,1017.34
2022-11-10T11:32:19.829Z,1017.39
2022-11-10T11:33:19.850Z,1017.33
2022-11-10T11:34:19.822Z,1017.31
2022-11-10T11:35:19.809Z,1017.32
2022-11-10T11:36:19.818Z,1017.32
2022-11-10T11:37:19.922Z,1017.31
2022-11-10T11:38:20.066Z,1017.30
2022-11-10T11:39:19.743Z,1017.39
2022-11-10T11:40:19.750Z,1017.33
2022-11-10T11:41:19.722Z,1017.33
2022-11-10T11:42:19.741Z,1017.34
2022-11-10T11:43:19.673Z,1017.32
2022-11-10T11:44:19.684Z,1017.37
2022-11-10T11:45:19.685Z,1017.41
2022-11-10T11:46:19.668Z,1017.41
2022-11-10T11:47:19.685Z,1017.46
2022-11-10T11:48:19.948Z,1017.54
2022-11-10T11:49:19.590Z,1017.50
2022-11-10T11:50:19.673Z,1017.48
2022-11-10T11:51:20.673Z,1017.45
2022-11-10T11:52:19.586Z,1017.51
2022-11-10T11:53:19.565Z,1017.54
2022-11-10T11:54:19.563Z,1017.54
2022-11-10T11:55:19.530Z,1017.52
2022-11-10T11:56:19.528Z,1017.54
2022-11-10T11:57:19.518Z,1017.55
2022-11-10T11:58:19.705Z,1017.55
2022-11-10T11:59:19.485Z,1017.58
2022-11-10T12:00:19.485Z,1017.51
2022-11-10T12:01:19.440Z,1017.57
2022-11-10T12:02:19.547Z,1017.59
2022-11-10T12:03:19.454Z,1017.65
2022-11-10T12:04:19.484Z,1017.58
2022-11-10T12:05:19.390Z,1017.56